sensor_id;sensor_type;location;lat;lon;timestamp;temperature;humidity
30379;DHT22;17168;49.164;9.060;2023-07-09T08:34:32;26.60;68.10
30379;DHT22;17168;49.164;9.060;2023-07-09T08:37:05;26.80;67.80
30379;DHT22;17168;49.164;9.060;2023-07-09T09:05:23;28.00;62.50
30379;DHT22;17168;49.164;9.060;2023-07-09T11:07:55;32.80;44.90
30379;DHT22;17168;49.164;9.060;2023-07-09T11:10:47;32.90;45.50
30379;DHT22;17168;49.164;9.060;2023-07-09T12:05:52;35.00;39.80
30379;DHT22;17168;49.164;9.060;2023-07-09T15:51:32;40.30;30.90
30379;DHT22;17168;49.164;9.060;2023-07-09T16:15:30;39.90;31.90
30379;DHT22;17168;49.164;9.060;2023-07-09T16:18:17;40.00;31.50
30379;DHT22;17168;49.164;9.060;2023-07-09T16:20:50;40.10;31.30
30379;DHT22;17168;49.164;9.060;2023-07-09T16:23:22;40.10;31.50
30379;DHT22;17168;49.164;9.060;2023-07-09T16:25:55;40.20;31.80
30379;DHT22;17168;49.164;9.060;2023-07-09T16:28:27;40.20;31.70
30379;DHT22;17168;49.164;9.060;2023-07-09T16:31:02;40.20;31.90
30379;DHT22;17168;49.164;9.060;2023-07-09T16:33:35;40.30;32.20
30379;DHT22;17168;49.164;9.060;2023-07-09T16:36:11;40.30;32.00
30379;DHT22;17168;49.164;9.060;2023-07-09T16:38:45;40.20;31.80
30379;DHT22;17168;49.164;9.060;2023-07-09T16:41:18;40.20;31.80
30379;DHT22;17168;49.164;9.060;2023-07-09T16:43:52;40.20;31.70
30379;DHT22;17168;49.164;9.060;2023-07-09T16:46:29;40.00;32.10
30379;DHT22;17168;49.164;9.060;2023-07-09T16:49:01;40.00;32.70
30379;DHT22;17168;49.164;9.060;2023-07-09T16:51:34;39.90;33.00
30379;DHT22;17168;49.164;9.060;2023-07-09T16:54:10;39.90;33.30
30379;DHT22;17168;49.164;9.060;2023-07-09T16:56:42;39.80;33.90
30379;DHT22;17168;49.164;9.060;2023-07-09T16:59:14;39.70;34.50
30379;DHT22;17168;49.164;9.060;2023-07-09T17:01:49;39.60;35.70
30379;DHT22;17168;49.164;9.060;2023-07-09T17:04:24;39.50;36.50
30379;DHT22;17168;49.164;9.060;2023-07-09T17:06:59;39.30;36.50
30379;DHT22;17168;49.164;9.060;2023-07-09T17:09:31;39.30;37.00
30379;DHT22;17168;49.164;9.060;2023-07-09T17:12:07;39.10;36.60
30379;DHT22;17168;49.164;9.060;2023-07-09T17:14:41;38.90;36.60
30379;DHT22;17168;49.164;9.060;2023-07-09T17:17:17;38.80;37.20
30379;DHT22;17168;49.164;9.060;2023-07-09T17:19:50;38.70;37.20
30379;DHT22;17168;49.164;9.060;2023-07-09T17:22:28;38.60;37.80
30379;DHT22;17168;49.164;9.060;2023-07-09T17:25:19;38.50;37.90
30379;DHT22;17168;49.164;9.060;2023-07-09T17:27:53;38.40;37.40
30379;DHT22;17168;49.164;9.060;2023-07-09T17:30:25;38.30;37.20
30379;DHT22;17168;49.164;9.060;2023-07-09T17:33:02;38.20;38.40
30379;DHT22;17168;49.164;9.060;2023-07-09T17:35:37;38.10;40.20
30379;DHT22;17168;49.164;9.060;2023-07-09T17:38:13;38.00;41.50
30379;DHT22;17168;49.164;9.060;2023-07-09T17:40:46;37.90;41.30
30379;DHT22;17168;49.164;9.060;2023-07-09T17:43:22;37.70;40.10
30379;DHT22;17168;49.164;9.060;2023-07-09T17:45:54;37.70;41.20
30379;DHT22;17168;49.164;9.060;2023-07-09T17:48:31;37.50;41.80
30379;DHT22;17168;49.164;9.060;2023-07-09T17:51:05;37.50;42.30
30379;DHT22;17168;49.164;9.060;2023-07-09T17:53:37;37.40;42.70
30379;DHT22;17168;49.164;9.060;2023-07-09T17:56:19;37.20;42.60
30379;DHT22;17168;49.164;9.060;2023-07-09T17:58:52;37.00;42.50
30379;DHT22;17168;49.164;9.060;2023-07-09T18:01:25;36.80;42.90
30379;DHT22;17168;49.164;9.060;2023-07-09T18:04:04;36.70;43.30
30379;DHT22;17168;49.164;9.060;2023-07-09T18:06:50;36.50;43.80
30379;DHT22;17168;49.164;9.060;2023-07-09T19:08:20;33.10;51.10
30379;DHT22;17168;49.164;9.060;2023-07-09T19:51:08;30.60;49.90
30379;DHT22;17168;49.164;9.060;2023-07-09T21:12:58;27.40;57.70
30379;DHT22;17168;49.164;9.060;2023-07-09T21:15:31;27.30;58.00
30379;DHT22;17168;49.164;9.060;2023-07-09T21:18:06;27.20;58.40
30379;DHT22;17168;49.164;9.060;2023-07-09T21:20:39;27.40;58.90
30379;DHT22;17168;49.164;9.060;2023-07-09T21:23:18;27.70;59.00
30379;DHT22;17168;49.164;9.060;2023-07-09T21:25:54;28.10;58.60
30379;DHT22;17168;49.164;9.060;2023-07-09T21:28:29;28.40;58.10
30379;DHT22;17168;49.164;9.060;2023-07-09T21:31:01;28.70;57.50
30379;DHT22;17168;49.164;9.060;2023-07-09T21:33:34;29.00;56.90
30379;DHT22;17168;49.164;9.060;2023-07-09T21:36:07;29.20;56.60
30379;DHT22;17168;49.164;9.060;2023-07-09T21:38:39;29.40;56.50
30379;DHT22;17168;49.164;9.060;2023-07-09T21:41:12;29.60;56.30
30379;DHT22;17168;49.164;9.060;2023-07-09T21:43:47;29.80;56.10
30379;DHT22;17168;49.164;9.060;2023-07-09T21:46:26;29.90;56.00
30379;DHT22;17168;49.164;9.060;2023-07-09T21:49:01;30.00;55.90
30379;DHT22;17168;49.164;9.060;2023-07-09T21:51:33;30.10;55.50
30379;DHT22;17168;49.164;9.060;2023-07-09T21:54:24;30.20;55.20
30379;DHT22;17168;49.164;9.060;2023-07-09T21:57:19;30.30;55.10
30379;DHT22;17168;49.164;9.060;2023-07-09T21:59:54;30.40;54.90
30379;DHT22;17168;49.164;9.060;2023-07-09T22:02:29;30.40;54.70
30379;DHT22;17168;49.164;9.060;2023-07-09T22:05:01;30.40;54.70
30379;DHT22;17168;49.164;9.060;2023-07-09T22:07:34;30.40;54.60
30379;DHT22;17168;49.164;9.060;2023-07-09T22:10:09;30.40;54.60
30379;DHT22;17168;49.164;9.060;2023-07-09T22:12:46;30.40;54.70
30379;DHT22;17168;49.164;9.060;2023-07-09T22:15:23;30.40;54.60
30379;DHT22;17168;49.164;9.060;2023-07-09T22:17:56;30.40;54.60
30379;DHT22;17168;49.164;9.060;2023-07-09T22:20:30;30.40;54.60
30379;DHT22;17168;49.164;9.060;2023-07-09T22:23:02;30.40;54.60
30379;DHT22;17168;49.164;9.060;2023-07-09T22:25:38;30.30;54.60
30379;DHT22;17168;49.164;9.060;2023-07-09T22:28:13;30.30;54.70
30379;DHT22;17168;49.164;9.060;2023-07-09T22:30:51;30.30;54.60
30379;DHT22;17168;49.164;9.060;2023-07-09T22:33:23;30.40;54.70
30379;DHT22;17168;49.164;9.060;2023-07-09T22:35:55;30.30;54.60
30379;DHT22;17168;49.164;9.060;2023-07-09T22:38:29;30.20;54.50
30379;DHT22;17168;49.164;9.060;2023-07-09T22:41:01;30.20;54.50
30379;DHT22;17168;49.164;9.060;2023-07-09T22:43:34;30.20;54.70
30379;DHT22;17168;49.164;9.060;2023-07-09T22:46:14;30.20;54.10
30379;DHT22;17168;49.164;9.060;2023-07-09T22:48:47;30.20;54.10
30379;DHT22;17168;49.164;9.060;2023-07-09T22:51:19;30.10;54.10
30379;DHT22;17168;49.164;9.060;2023-07-09T22:53:51;30.10;54.30
30379;DHT22;17168;49.164;9.060;2023-07-09T22:56:23;30.00;54.10
30379;DHT22;17168;49.164;9.060;2023-07-09T22:58:55;30.00;54.20
30379;DHT22;17168;49.164;9.060;2023-07-09T23:01:31;30.00;54.50
30379;DHT22;17168;49.164;9.060;2023-07-09T23:04:09;29.90;54.60
30379;DHT22;17168;49.164;9.060;2023-07-09T23:06:42;29.90;54.90
30379;DHT22;17168;49.164;9.060;2023-07-09T23:09:14;29.70;55.00
30379;DHT22;17168;49.164;9.060;2023-07-09T23:11:46;29.70;55.10
30379;DHT22;17168;49.164;9.060;2023-07-09T23:14:23;29.70;55.00
30379;DHT22;17168;49.164;9.060;2023-07-09T23:16:59;29.60;55.10
30379;DHT22;17168;49.164;9.060;2023-07-09T23:19:32;29.50;55.10
30379;DHT22;17168;49.164;9.060;2023-07-09T23:22:04;29.50;55.20
30379;DHT22;17168;49.164;9.060;2023-07-09T23:24:36;29.40;55.70
30379;DHT22;17168;49.164;9.060;2023-07-09T23:27:14;29.40;55.30
30379;DHT22;17168;49.164;9.060;2023-07-09T23:29:48;29.30;55.50
30379;DHT22;17168;49.164;9.060;2023-07-09T23:32:24;29.20;55.70
30379;DHT22;17168;49.164;9.060;2023-07-09T23:34:56;29.20;55.80
30379;DHT22;17168;49.164;9.060;2023-07-09T23:37:29;29.20;56.00
30379;DHT22;17168;49.164;9.060;2023-07-09T23:40:01;29.10;56.10
30379;DHT22;17168;49.164;9.060;2023-07-09T23:42:34;29.00;56.00
30379;DHT22;17168;49.164;9.060;2023-07-09T23:45:07;28.90;55.90
30379;DHT22;17168;49.164;9.060;2023-07-09T23:47:45;28.90;56.00
30379;DHT22;17168;49.164;9.060;2023-07-09T23:50:20;28.90;56.10
30379;DHT22;17168;49.164;9.060;2023-07-09T23:52:52;28.90;56.10
30379;DHT22;17168;49.164;9.060;2023-07-09T23:55:24;28.90;56.20
30379;DHT22;17168;49.164;9.060;2023-07-09T23:57:57;28.90;56.30
